Bering Titan — WDI6469 — position and weather

sailwx.info

Track history (hours):
 
Tides and Currents Weather Stations Pressure Air Temp Water Temp Dewpoint Dewpoint Depression Visibility Wind Speed Wind Dir Waves Ship Positions

Bering Titan

Owner: WESTERN TOWBOAT CO, Seattle, WA. More information available from US FCC via Universal Licensing System and Coast Guard Vessel Documentation Center.

Last reported at 2018-Feb-24 03:59 UTC. Time now 2018-Feb-24 04:30 UTC.
Position N 49°49' W 124°55'.

Length 36 m; draft 3 m.

Type: Tug. MMSI: 367719020.

Date/timePositionNaut miles runAvg speedWind from/ knotsBaromVisibWave heightAir tempDewpointWater temp
2018-Feb-24 03:59N 49°49' W 124°55'5 9.2
2018-Feb-24 03:30N 49°46' W 124°50'610.7
2018-Feb-24 02:59N 49°42' W 124°44'510.4
2018-Feb-24 02:30N 49°38' W 124°39'510.4
2018-Feb-24 02:00N 49°34' W 124°33'510.5
2018-Feb-24 01:30N 49°31' W 124°27'611.3
2018-Feb-24 00:58N 49°27' W 124°21'2510.2
2018-Feb-23 22:28N 49°18' W 123°44'510.3
2018-Feb-23 22:00N 49°15' W 123°38'510.3
2018-Feb-23 21:30N 49°12' W 123°32'610.4
2018-Feb-23 20:58N 49°08' W 123°26'510.1
2018-Feb-23 20:27N 49°04' W 123°21'5 9.9
2018-Feb-23 19:59N 49°01' W 123°15'5 9.4
2018-Feb-23 19:30N 48°58' W 123°10'4 9.2
2018-Feb-23 19:00N 48°55' W 123°05'6 9.5
2018-Feb-23 18:22N 48°51' W 122°58'410.0
2018-Feb-23 18:00N 48°49' W 122°54'510.5
2018-Feb-23 17:30N 48°46' W 122°47'511.0
2018-Feb-23 17:00N 48°41' W 122°43'510.5
2018-Feb-23 16:30N 48°36' W 122°45'611.5
2018-Feb-23 16:00N 48°30' W 122°44'611.2
2018-Feb-23 15:29N 48°25' W 122°44'510.5
2018-Feb-23 15:00N 48°20' W 122°46'7 9.6
2018-Feb-23 14:18N 48°13' W 122°48'13 9.6
2018-Feb-23 12:59N 48°02' W 122°38'510.6
2018-Feb-23 12:29N 47°58' W 122°34'510.1
2018-Feb-23 12:00N 47°54' W 122°28'510.5
2018-Feb-23 11:30N 47°49' W 122°27'5 9.9
2018-Feb-23 11:00N 47°44' W 122°26'510.0
2018-Feb-23 10:31N 47°39' W 122°27'4 8.7
2018-Feb-23 10:00N 47°37' W 122°22'1 2.5
2018-Feb-23 09:30N 47°36' W 122°21'0 0.5
2018-Feb-23 09:00N 47°35' W 122°21'0 0.0
2018-Feb-23 08:30N 47°35' W 122°21'0 0.1
2018-Feb-23 08:00N 47°35' W 122°21'0 0.0
2018-Feb-23 07:30N 47°35' W 122°21'0 0.0
2018-Feb-23 07:00N 47°35' W 122°21'0 0.0
2018-Feb-23 06:30N 47°35' W 122°21'0 0.0
2018-Feb-23 06:00N 47°35' W 122°21'0 0.0
2018-Feb-23 05:30N 47°35' W 122°21'1 1.3
2018-Feb-23 05:00N 47°35' W 122°22'0 0.0
2018-Feb-23 04:30N 47°35' W 122°22'0 0.0
2018-Feb-23 04:00N 47°35' W 122°22'0 0.0
2018-Feb-23 03:30N 47°35' W 122°22'0 0.0
2018-Feb-23 03:00N 47°35' W 122°22'0 0.0
2018-Feb-23 02:30N 47°35' W 122°22'0 0.1
2018-Feb-23 02:00N 47°35' W 122°22'0 0.1
2018-Feb-23 01:30N 47°35' W 122°22'3 5.8
2018-Feb-23 01:00N 47°37' W 122°25'3 5.4
2018-Feb-23 00:30N 47°40' W 122°24'1 2.1
2018-Feb-23 00:00N 47°40' W 122°22'0 0.9
2018-Feb-22 23:30N 47°39' W 122°22'0 0.0
2018-Feb-22 23:00N 47°39' W 122°22'0 0.0
2018-Feb-22 22:30N 47°39' W 122°22'0 0.0
2018-Feb-22 22:00N 47°39' W 122°22'0 0.0
2018-Feb-22 21:30N 47°39' W 122°22'0 0.0
2018-Feb-22 21:00N 47°39' W 122°22'0 0.0
2018-Feb-22 20:30N 47°39' W 122°22'0 0.0
2018-Feb-22 20:00N 47°39' W 122°22'0 0.0
2018-Feb-22 19:30N 47°39' W 122°22'0 0.0
2018-Feb-22 19:00N 47°39' W 122°22'0 0.0
2018-Feb-22 18:30N 47°39' W 122°22'  
2018-Feb-14 19:18N 47°39' W 122°22'0 0.4
2018-Feb-14 19:00N 47°39' W 122°22'0 0.2
2018-Feb-14 18:31N 47°39' W 122°22'1 2.9
2018-Feb-14 18:00N 47°40' W 122°24'2 3.7
2018-Feb-14 17:30N 47°39' W 122°26'611.0
2018-Feb-14 17:00N 47°35' W 122°21'0 0.0
2018-Feb-14 16:30N 47°35' W 122°21'1 1.7
2018-Feb-14 16:00N 47°36' W 122°22'1 1.5
2018-Feb-14 15:30N 47°36' W 122°23'4 7.1
2018-Feb-14 15:00N 47°38' W 122°27'4 7.9
2018-Feb-14 14:30N 47°42' W 122°28'4 7.3
2018-Feb-14 14:00N 47°46' W 122°27'4 7.4
2018-Feb-14 13:30N 47°49' W 122°28'4 7.7
2018-Feb-14 13:00N 47°53' W 122°29'4 8.5
2018-Feb-14 12:30N 47°56' W 122°33'18 8.1
2018-Feb-14 10:16N 48°12' W 122°48'310.9
2018-Feb-14 09:58N 48°15' W 122°49'510.4
2018-Feb-14 09:30N 48°20' W 122°47'5 9.8
2018-Feb-14 09:00N 48°24' W 122°45'5 9.2
2018-Feb-14 08:30N 48°29' W 122°44'5 9.2
2018-Feb-14 08:00N 48°33' W 122°45'5 9.2
2018-Feb-14 07:30N 48°38' W 122°44'5 9.3
2018-Feb-14 07:00N 48°43' W 122°45'9 9.8
2018-Feb-14 06:08N 48°48' W 122°55'210.2
2018-Feb-14 05:58N 48°49' W 122°58'510.4
2018-Feb-14 05:30N 48°52' W 123°03'510.4
2018-Feb-14 05:00N 48°55' W 123°10'511.0
2018-Feb-14 04:30N 48°58' W 123°16'  
Track history (hours):
 
Tides and Currents Weather Stations Pressure Air Temp Water Temp Dewpoint Dewpoint Depression Visibility Wind Speed Wind Dir Waves Ship Positions

Bering Titan

Owner: WESTERN TOWBOAT CO, Seattle, WA. More information available from US FCC via Universal Licensing System and Coast Guard Vessel Documentation Center.

Last reported at 2018-Feb-24 03:59 UTC. Time now 2018-Feb-24 04:30 UTC.
Position N 49°49' W 124°55'.

Length 36 m; draft 3 m.

Type: Tug. MMSI: 367719020.

Date/timePositionNaut miles runAvg speedWind from/ knotsBaromVisibWave heightAir tempDewpointWater temp
2018-Feb-24 03:59N 49°49' W 124°55'5 9.2
2018-Feb-24 03:30N 49°46' W 124°50'610.7
2018-Feb-24 02:59N 49°42' W 124°44'510.4
2018-Feb-24 02:30N 49°38' W 124°39'510.4
2018-Feb-24 02:00N 49°34' W 124°33'510.5
2018-Feb-24 01:30N 49°31' W 124°27'611.3
2018-Feb-24 00:58N 49°27' W 124°21'2510.2
2018-Feb-23 22:28N 49°18' W 123°44'510.3
2018-Feb-23 22:00N 49°15' W 123°38'510.3
2018-Feb-23 21:30N 49°12' W 123°32'610.4
2018-Feb-23 20:58N 49°08' W 123°26'510.1
2018-Feb-23 20:27N 49°04' W 123°21'5 9.9
2018-Feb-23 19:59N 49°01' W 123°15'5 9.4
2018-Feb-23 19:30N 48°58' W 123°10'4 9.2
2018-Feb-23 19:00N 48°55' W 123°05'6 9.5
2018-Feb-23 18:22N 48°51' W 122°58'410.0
2018-Feb-23 18:00N 48°49' W 122°54'510.5
2018-Feb-23 17:30N 48°46' W 122°47'511.0
2018-Feb-23 17:00N 48°41' W 122°43'510.5
2018-Feb-23 16:30N 48°36' W 122°45'611.5
2018-Feb-23 16:00N 48°30' W 122°44'611.2
2018-Feb-23 15:29N 48°25' W 122°44'510.5
2018-Feb-23 15:00N 48°20' W 122°46'7 9.6
2018-Feb-23 14:18N 48°13' W 122°48'13 9.6
2018-Feb-23 12:59N 48°02' W 122°38'510.6
2018-Feb-23 12:29N 47°58' W 122°34'510.1
2018-Feb-23 12:00N 47°54' W 122°28'510.5
2018-Feb-23 11:30N 47°49' W 122°27'5 9.9
2018-Feb-23 11:00N 47°44' W 122°26'510.0
2018-Feb-23 10:31N 47°39' W 122°27'4 8.7
2018-Feb-23 10:00N 47°37' W 122°22'1 2.5
2018-Feb-23 09:30N 47°36' W 122°21'0 0.5
2018-Feb-23 09:00N 47°35' W 122°21'0 0.0
2018-Feb-23 08:30N 47°35' W 122°21'0 0.1
2018-Feb-23 08:00N 47°35' W 122°21'0 0.0
2018-Feb-23 07:30N 47°35' W 122°21'0 0.0
2018-Feb-23 07:00N 47°35' W 122°21'0 0.0
2018-Feb-23 06:30N 47°35' W 122°21'0 0.0
2018-Feb-23 06:00N 47°35' W 122°21'0 0.0
2018-Feb-23 05:30N 47°35' W 122°21'1 1.3
2018-Feb-23 05:00N 47°35' W 122°22'0 0.0
2018-Feb-23 04:30N 47°35' W 122°22'0 0.0
2018-Feb-23 04:00N 47°35' W 122°22'0 0.0
2018-Feb-23 03:30N 47°35' W 122°22'0 0.0
2018-Feb-23 03:00N 47°35' W 122°22'0 0.0
2018-Feb-23 02:30N 47°35' W 122°22'0 0.1
2018-Feb-23 02:00N 47°35' W 122°22'0 0.1
2018-Feb-23 01:30N 47°35' W 122°22'3 5.8
2018-Feb-23 01:00N 47°37' W 122°25'3 5.4
2018-Feb-23 00:30N 47°40' W 122°24'1 2.1
2018-Feb-23 00:00N 47°40' W 122°22'0 0.9
2018-Feb-22 23:30N 47°39' W 122°22'0 0.0
2018-Feb-22 23:00N 47°39' W 122°22'0 0.0
2018-Feb-22 22:30N 47°39' W 122°22'0 0.0
2018-Feb-22 22:00N 47°39' W 122°22'0 0.0
2018-Feb-22 21:30N 47°39' W 122°22'0 0.0
2018-Feb-22 21:00N 47°39' W 122°22'0 0.0
2018-Feb-22 20:30N 47°39' W 122°22'0 0.0
2018-Feb-22 20:00N 47°39' W 122°22'0 0.0
2018-Feb-22 19:30N 47°39' W 122°22'0 0.0
2018-Feb-22 19:00N 47°39' W 122°22'0 0.0
2018-Feb-22 18:30N 47°39' W 122°22'  
2018-Feb-14 19:18N 47°39' W 122°22'0 0.4
2018-Feb-14 19:00N 47°39' W 122°22'0 0.2
2018-Feb-14 18:31N 47°39' W 122°22'1 2.9
2018-Feb-14 18:00N 47°40' W 122°24'2 3.7
2018-Feb-14 17:30N 47°39' W 122°26'611.0
2018-Feb-14 17:00N 47°35' W 122°21'0 0.0
2018-Feb-14 16:30N 47°35' W 122°21'1 1.7
2018-Feb-14 16:00N 47°36' W 122°22'1 1.5
2018-Feb-14 15:30N 47°36' W 122°23'4 7.1
2018-Feb-14 15:00N 47°38' W 122°27'4 7.9
2018-Feb-14 14:30N 47°42' W 122°28'4 7.3
2018-Feb-14 14:00N 47°46' W 122°27'4 7.4
2018-Feb-14 13:30N 47°49' W 122°28'4 7.7
2018-Feb-14 13:00N 47°53' W 122°29'4 8.5
2018-Feb-14 12:30N 47°56' W 122°33'18 8.1
2018-Feb-14 10:16N 48°12' W 122°48'310.9
2018-Feb-14 09:58N 48°15' W 122°49'510.4
2018-Feb-14 09:30N 48°20' W 122°47'5 9.8
2018-Feb-14 09:00N 48°24' W 122°45'5 9.2
2018-Feb-14 08:30N 48°29' W 122°44'5 9.2
2018-Feb-14 08:00N 48°33' W 122°45'5 9.2
2018-Feb-14 07:30N 48°38' W 122°44'5 9.3
2018-Feb-14 07:00N 48°43' W 122°45'9 9.8
2018-Feb-14 06:08N 48°48' W 122°55'210.2
2018-Feb-14 05:58N 48°49' W 122°58'510.4
2018-Feb-14 05:30N 48°52' W 123°03'510.4
2018-Feb-14 05:00N 48°55' W 123°10'511.0
2018-Feb-14 04:30N 48°58' W 123°16'  

Dump ship's entire track history